Time;durP1;ratioP1;P1;durP2;ratioP2;P2;SDS_P1;SDS_P2;PMS_P1;PMS_P2;Temp;Humidity;BMP_temperature;BMP_pressure;BME280_temperature;BME280_humidity;BME280_pressure;Samples;Min_cycle;Max_cycle;Signal;HPM_P1;HPM_P2
2023/03/27 00:00:33;;;;;;;5.40;3.83;;;13.40;99.90;;;;;;5097266;28;20196;-85
2023/03/27 00:02:58;;;;;;;5.32;4.22;;;13.40;99.90;;;;;;5095949;28;20665;-80
2023/03/27 00:05:24;;;;;;;6.43;4.13;;;13.40;99.90;;;;;;5095753;28;20183;-87
2023/03/27 00:07:54;;;;;;;4.80;3.67;;;13.30;99.90;;;;;;5095873;28;20462;-80
2023/03/27 00:10:21;;;;;;;6.80;4.53;;;13.30;99.90;;;;;;5097053;28;20176;-79
2023/03/27 00:12:47;;;;;;;4.40;3.70;;;13.30;99.90;;;;;;5097184;28;20832;-80
2023/03/27 00:15:17;;;;;;;5.70;4.33;;;13.30;99.90;;;;;;5097828;28;20457;-87
2023/03/27 00:17:50;;;;;;;5.60;4.07;;;13.30;99.90;;;;;;5096324;28;20581;-80
2023/03/27 00:20:21;;;;;;;9.80;4.90;;;13.30;99.90;;;;;;5096891;28;20418;-88
2023/03/27 00:22:55;;;;;;;4.13;2.83;;;13.30;99.90;;;;;;5095468;28;20440;-80
2023/03/27 00:25:23;;;;;;;6.13;3.93;;;13.20;99.90;;;;;;5096871;28;20389;-88
2023/03/27 00:27:49;;;;;;;4.73;3.20;;;13.20;99.90;;;;;;5095354;28;20445;-80
2023/03/27 00:30:16;;;;;;;6.20;4.07;;;13.20;99.90;;;;;;5095441;28;20930;-87
2023/03/27 00:32:42;;;;;;;4.50;3.10;;;13.20;99.90;;;;;;5096664;28;20437;-88
2023/03/27 00:35:08;;;;;;;4.10;3.70;;;13.20;99.90;;;;;;5095280;28;20420;-80
2023/03/27 00:37:37;;;;;;;4.97;4.10;;;13.20;99.90;;;;;;5095080;28;20483;-88
2023/03/27 00:40:07;;;;;;;9.07;4.67;;;13.20;99.90;;;;;;5096442;28;20437;-86
2023/03/27 00:42:34;;;;;;;5.83;3.97;;;13.20;99.90;;;;;;5096387;28;20444;-80
2023/03/27 00:45:01;;;;;;;4.87;4.10;;;13.10;99.90;;;;;;5095079;28;20512;-88
2023/03/27 00:47:32;;;;;;;4.53;4.13;;;13.00;99.90;;;;;;5096299;28;20445;-80
2023/03/27 00:50:05;;;;;;;5.97;5.13;;;13.00;99.90;;;;;;5095072;28;20951;-88
2023/03/27 00:52:31;;;;;;;4.87;4.27;;;13.00;99.90;;;;;;5097057;28;20909;-87
2023/03/27 00:55:02;;;;;;;7.33;5.07;;;13.00;99.90;;;;;;5094990;28;20429;-87
2023/03/27 00:57:28;;;;;;;5.67;5.07;;;13.00;99.90;;;;;;5094943;28;20995;-80
2023/03/27 00:59:56;;;;;;;7.47;4.53;;;13.00;99.90;;;;;;5094749;28;20971;-79
2023/03/27 01:02:22;;;;;;;5.13;4.23;;;13.00;99.90;;;;;;5096148;28;20495;-88
2023/03/27 01:04:49;;;;;;;4.17;3.60;;;13.10;99.90;;;;;;5095899;28;20416;-86
2023/03/27 01:07:15;;;;;;;5.23;4.70;;;13.20;99.90;;;;;;5094602;28;20433;-78
2023/03/27 01:09:41;;;;;;;7.87;5.07;;;13.20;99.90;;;;;;5094583;28;20436;-80
2023/03/27 01:12:36;;;;;;;5.90;4.50;;;13.10;99.90;;;;;;5095772;28;20962;-88
2023/03/27 01:15:06;;;;;;;5.57;4.63;;;13.20;99.90;;;;;;5094319;28;20476;-88
2023/03/27 01:17:50;;;;;;;8.27;5.00;;;13.20;99.90;;;;;;5094274;28;20724;-80
2023/03/27 01:20:43;;;;;;;9.20;5.17;;;13.20;99.90;;;;;;5094420;28;20429;-79
2023/03/27 01:23:12;;;;;;;7.17;5.60;;;13.20;99.90;;;;;;5094689;28;20456;-79
2023/03/27 01:26:09;;;;;;;6.97;5.37;;;13.10;99.90;;;;;;5095764;28;20442;-87
2023/03/27 01:28:53;;;;;;;5.40;4.20;;;13.10;99.90;;;;;;5095377;28;20441;-79
2023/03/27 01:31:44;;;;;;;7.63;4.93;;;13.10;99.90;;;;;;5094986;28;20424;-88
2023/03/27 01:34:48;;;;;;;5.63;4.40;;;13.00;99.90;;;;;;5095636;28;20428;-88
2023/03/27 01:37:40;;;;;;;5.55;4.53;;;13.00;99.90;;;;;;5060838;28;20440;-79
2023/03/27 01:40:14;;;;;;;4.37;3.97;;;13.00;99.90;;;;;;5094018;28;20616;-88
2023/03/27 01:42:55;;;;;;;4.50;4.10;;;12.90;99.90;;;;;;5095354;28;20436;-87
2023/03/27 01:45:35;;;;;;;4.63;4.20;;;12.90;99.90;;;;;;5095219;28;20492;-87
2023/03/27 01:48:12;;;;;;;6.20;4.68;;;12.90;99.90;;;;;;5094997;28;20456;-85
2023/03/27 01:50:43;;;;;;;6.10;5.00;;;12.90;99.90;;;;;;5093817;28;20199;-79
2023/03/27 01:53:33;;;;;;;5.83;3.80;;;12.80;99.90;;;;;;5093869;28;20437;-88
2023/03/27 01:56:06;;;;;;;6.22;4.15;;;12.70;99.90;;;;;;5093679;28;20421;-87
2023/03/27 01:58:40;;;;;;;4.40;3.90;;;12.70;99.90;;;;;;5094718;28;20212;-80
2023/03/27 02:01:09;;;;;;;4.50;4.10;;;12.70;99.90;;;;;;5094338;28;20933;-79
2023/03/27 02:03:42;;;;;;;4.68;4.28;;;12.70;99.90;;;;;;5093724;28;20287;-88
2023/03/27 02:06:12;;;;;;;5.13;4.28;;;12.70;99.90;;;;;;5094882;28;20206;-80
2023/03/27 02:08:41;;;;;;;4.93;4.33;;;12.70;99.90;;;;;;5094588;28;20676;-87
2023/03/27 02:11:07;;;;;;;4.90;3.85;;;12.70;99.90;;;;;;5094686;28;20405;-81
2023/03/27 02:13:56;;;;;;;5.63;4.97;;;12.70;99.90;;;;;;5094663;28;20224;-87
2023/03/27 02:16:27;;;;;;;5.23;4.33;;;12.80;99.90;;;;;;5094508;28;20496;-88
2023/03/27 02:19:00;;;;;;;6.10;4.63;;;12.80;99.90;;;;;;5094883;28;20961;-80
2023/03/27 02:21:26;;;;;;;6.50;4.07;;;12.70;99.90;;;;;;5094628;28;20405;-88
2023/03/27 02:23:52;;;;;;;6.93;3.97;;;12.80;99.90;;;;;;5093216;28;20485;-80
2023/03/27 02:26:18;;;;;;;5.07;4.67;;;12.80;99.90;;;;;;5094386;28;20401;-79
2023/03/27 02:29:21;;;;;;;4.23;3.80;;;12.90;99.90;;;;;;5093245;28;20641;-80
2023/03/27 02:32:14;;;;;;;5.07;4.27;;;12.90;99.90;;;;;;5094213;28;20409;-87
2023/03/27 02:35:01;;;;;;;5.00;4.00;;;12.80;99.90;;;;;;5094578;28;20943;-89
2023/03/27 02:37:45;;;;;;;5.27;4.37;;;12.80;99.90;;;;;;5092927;28;20813;-79
2023/03/27 02:40:29;;;;;;;4.30;3.90;;;12.80;99.90;;;;;;5095238;28;20416;-79
2023/03/27 02:43:21;;;;;;;5.83;4.00;;;12.80;99.90;;;;;;5094938;28;20453;-91
2023/03/27 02:45:58;;;;;;;4.60;4.10;;;12.70;99.90;;;;;;5093165;28;21036;-80
2023/03/27 02:48:35;;;;;;;5.43;4.27;;;12.60;99.90;;;;;;5094479;28;20936;-79
2023/03/27 02:51:29;;;;;;;8.47;4.67;;;12.60;99.90;;;;;;5094129;28;20425;-87
2023/03/27 02:54:11;;;;;;;4.50;3.90;;;12.60;99.90;;;;;;5084534;28;20425;-80
2023/03/27 02:56:45;;;;;;;4.60;3.70;;;12.70;99.90;;;;;;5093914;28;20409;-86
2023/03/27 02:59:29;;;;;;;7.60;4.60;;;12.70;99.90;;;;;;5092709;28;21056;-87
2023/03/27 03:01:55;;;;;;;4.93;3.77;;;12.70;99.90;;;;;;5092599;28;20456;-80
2023/03/27 03:04:29;;;;;;;5.07;4.47;;;12.60;99.90;;;;;;5092814;28;20412;-80
2023/03/27 03:06:55;;;;;;;5.23;4.30;;;12.80;99.90;;;;;;5093939;28;20517;-86
2023/03/27 03:09:23;;;;;;;6.23;4.57;;;13.00;99.90;;;;;;5095496;28;20409;-79
2023/03/27 03:11:51;;;;;;;4.93;4.43;;;13.10;99.90;;;;;;5098087;28;20766;-87
2023/03/27 03:14:25;;;;;;;5.13;4.23;;;13.10;99.90;;;;;;5098137;28;20473;-83
2023/03/27 03:16:51;;;;;;;4.87;3.97;;;13.20;99.90;;;;;;5097900;28;20488;-80
2023/03/27 03:19:17;;;;;;;5.20;3.93;;;13.20;99.90;;;;;;5096738;28;20461;-86
2023/03/27 03:21:43;;;;;;;6.70;4.27;;;13.30;99.90;;;;;;5097778;28;20822;-88
2023/03/27 03:24:09;;;;;;;16.63;7.27;;;13.30;99.90;;;;;;5098085;28;20183;-87
2023/03/27 03:26:34;;;;;;;20.13;8.70;;;13.30;99.90;;;;;;5097672;28;20841;-79
2023/03/27 03:29:00;;;;;;;16.40;6.37;;;13.20;99.90;;;;;;5097773;28;20440;-80
2023/03/27 03:31:41;;;;;;;5.90;5.00;;;13.20;99.90;;;;;;5097904;28;20637;-86
2023/03/27 03:34:08;;;;;;;9.43;5.33;;;13.10;99.90;;;;;;5098810;28;20196;-88
2023/03/27 03:36:34;;;;;;;4.70;4.20;;;13.00;99.90;;;;;;5098508;28;20751;-88
2023/03/27 03:39:01;;;;;;;6.17;5.30;;;12.90;99.90;;;;;;5097548;28;20468;-79
2023/03/27 03:41:26;;;;;;;8.67;5.03;;;12.70;99.90;;;;;;5097495;28;20445;-86
2023/03/27 03:43:52;;;;;;;6.17;5.13;;;12.50;99.90;;;;;;5096267;28;20537;-86
2023/03/27 03:46:18;;;;;;;9.40;6.40;;;12.40;99.90;;;;;;5096314;28;20212;-87
2023/03/27 03:48:43;;;;;;;11.13;5.77;;;12.30;99.90;;;;;;5097145;28;20313;-87
2023/03/27 03:51:09;;;;;;;9.20;5.40;;;12.30;99.90;;;;;;5097438;28;20256;-85
2023/03/27 03:53:35;;;;;;;6.20;5.00;;;12.20;99.90;;;;;;5097707;28;20193;-88
2023/03/27 03:56:01;;;;;;;5.93;5.23;;;12.20;99.90;;;;;;5096054;28;20207;-87
2023/03/27 03:58:26;;;;;;;5.93;4.90;;;12.20;99.90;;;;;;5097358;28;20513;-80
2023/03/27 04:00:53;;;;;;;7.17;5.50;;;12.10;99.90;;;;;;5095877;28;20184;-86
2023/03/27 04:03:19;;;;;;;6.30;5.47;;;12.10;99.90;;;;;;5097147;28;20192;-88
2023/03/27 04:05:45;;;;;;;6.13;5.53;;;12.10;99.90;;;;;;5097191;28;20433;-79
2023/03/27 04:08:11;;;;;;;5.83;5.23;;;12.00;99.90;;;;;;5097376;28;20436;-82
2023/03/27 04:10:40;;;;;;;6.35;5.55;;;12.00;99.90;;;;;;5096929;28;20450;-88
2023/03/27 04:13:06;;;;;;;9.90;5.10;;;12.00;99.90;;;;;;5097109;28;20192;-79
2023/03/27 04:15:32;;;;;;;5.35;4.65;;;11.90;99.90;;;;;;5098572;28;20169;-79
2023/03/27 04:17:58;;;;;;;8.80;6.20;;;11.90;99.90;;;;;;5095633;28;20699;-89
2023/03/27 04:20:25;;;;;;;7.33;5.60;;;12.00;99.90;;;;;;5096041;28;20981;-79
2023/03/27 04:22:53;;;;;;;9.57;6.47;;;12.10;99.90;;;;;;5088285;28;20445;-88
2023/03/27 04:25:21;;;;;;;8.15;6.32;;;12.20;99.90;;;;;;5084328;28;20180;-80
2023/03/27 04:27:50;;;;;;;6.75;5.60;;;12.30;99.90;;;;;;5096533;28;20223;-89
2023/03/27 04:30:23;;;;;;;6.70;5.38;;;12.40;99.90;;;;;;5087004;28;20191;-79
2023/03/27 04:32:50;;;;;;;6.47;5.75;;;12.30;99.90;;;;;;5087411;28;20564;-90
2023/03/27 04:35:17;;;;;;;6.60;5.22;;;12.20;99.90;;;;;;5076640;28;20177;-88
2023/03/27 04:37:44;;;;;;;6.85;5.25;;;12.20;99.90;;;;;;5074782;28;20209;-80
2023/03/27 04:40:12;;;;;;;8.75;6.07;;;12.30;99.90;;;;;;5073941;28;20222;-80
2023/03/27 04:42:43;;;;;;;9.57;6.20;;;12.30;99.90;;;;;;5076375;28;20700;-90
2023/03/27 04:45:11;;;;;;;8.35;5.93;;;12.50;99.90;;;;;;5100306;28;20211;-79
2023/03/27 04:47:37;;;;;;;7.22;5.07;;;12.50;99.90;;;;;;5108316;28;20602;-79
2023/03/27 04:50:04;;;;;;;8.10;5.93;;;12.70;99.90;;;;;;5094193;28;20187;-80
2023/03/27 04:52:32;;;;;;;6.93;4.55;;;12.80;99.90;;;;;;5097375;28;20234;-79
2023/03/27 04:55:00;;;;;;;6.15;4.97;;;12.90;99.90;;;;;;5093651;28;20177;-80
2023/03/27 04:57:29;;;;;;;6.60;5.20;;;12.90;99.90;;;;;;5086284;28;20190;-86
2023/03/27 04:59:59;;;;;;;7.18;6.22;;;12.80;99.90;;;;;;5072292;28;20196;-80
2023/03/27 05:02:25;;;;;;;7.28;6.45;;;12.50;99.90;;;;;;5073977;28;20220;-78
2023/03/27 05:04:57;;;;;;;8.90;6.47;;;12.30;99.90;;;;;;5074226;28;20551;-79
2023/03/27 05:07:27;;;;;;;6.65;5.95;;;12.10;99.90;;;;;;5077618;28;20629;-88
2023/03/27 05:09:54;;;;;;;9.50;5.90;;;12.00;99.90;;;;;;5074007;28;20173;-79
2023/03/27 05:12:20;;;;;;;7.00;6.30;;;11.90;99.90;;;;;;5073899;28;20596;-88
2023/03/27 05:14:47;;;;;;;7.38;5.75;;;11.90;99.90;;;;;;5077454;28;20221;-88
2023/03/27 05:17:14;;;;;;;6.28;5.47;;;11.90;99.90;;;;;;5093578;28;20283;-79
2023/03/27 05:19:40;;;;;;;6.78;6.07;;;11.80;99.90;;;;;;5095090;28;20185;-87
2023/03/27 05:22:06;;;;;;;8.27;6.50;;;11.70;99.90;;;;;;5094484;28;20743;-86
2023/03/27 05:24:32;;;;;;;8.13;6.63;;;11.70;99.90;;;;;;5093511;28;20741;-79
2023/03/27 05:26:57;;;;;;;7.53;6.83;;;11.70;99.90;;;;;;5093082;28;20300;-79
2023/03/27 05:29:24;;;;;;;6.73;6.00;;;11.60;99.90;;;;;;5089652;28;20192;-83
2023/03/27 05:31:50;;;;;;;9.18;6.60;;;11.70;99.90;;;;;;5089187;28;20204;-88
2023/03/27 05:34:18;;;;;;;7.50;6.73;;;11.70;99.90;;;;;;5085506;28;20196;-82
2023/03/27 05:36:44;;;;;;;6.55;5.90;;;11.70;99.90;;;;;;5075597;28;20272;-79
2023/03/27 05:39:09;;;;;;;7.95;7.20;;;11.60;99.90;;;;;;5093655;28;20204;-83
2023/03/27 05:41:35;;;;;;;11.10;6.63;;;11.50;99.90;;;;;;5085884;28;20407;-76
2023/03/27 05:44:02;;;;;;;6.60;5.90;;;11.50;99.90;;;;;;5091591;28;20184;-77
2023/03/27 05:46:28;;;;;;;7.78;6.50;;;11.50;99.90;;;;;;5088807;28;20192;-78
2023/03/27 05:48:54;;;;;;;8.37;7.40;;;11.40;99.90;;;;;;5089215;28;20279;-77
2023/03/27 05:51:20;;;;;;;9.33;7.67;;;11.40;99.90;;;;;;5091248;28;20251;-79
2023/03/27 05:53:45;;;;;;;8.85;7.45;;;11.40;99.90;;;;;;5093369;28;20288;-81
2023/03/27 05:56:12;;;;;;;7.93;7.10;;;11.40;99.90;;;;;;5091089;28;20196;-79
2023/03/27 05:58:38;;;;;;;9.60;7.40;;;11.60;99.90;;;;;;5095813;28;20210;-80
2023/03/27 06:01:04;;;;;;;7.67;6.90;;;11.60;99.90;;;;;;5113471;28;20263;-81
2023/03/27 06:03:30;;;;;;;9.57;6.70;;;11.60;99.90;;;;;;5112781;28;20532;-81
2023/03/27 06:05:58;;;;;;;29.10;16.70;;;11.60;99.90;;;;;;5100546;28;20260;-79
2023/03/27 06:08:28;;;;;;;10.88;6.82;;;11.50;99.90;;;;;;5082226;28;20201;-82
2023/03/27 06:10:54;;;;;;;8.63;6.47;;;11.50;99.90;;;;;;5075423;28;20294;-81
2023/03/27 06:13:20;;;;;;;34.53;20.50;;;11.60;99.90;;;;;;5092224;28;20251;-81
2023/03/27 06:15:46;;;;;;;12.88;8.90;;;11.70;99.90;;;;;;5091999;28;20650;-81
2023/03/27 06:18:12;;;;;;;16.40;11.20;;;11.60;99.90;;;;;;5088779;28;20220;-79
2023/03/27 06:20:39;;;;;;;48.33;27.63;;;11.60;99.90;;;;;;5080767;28;20199;-81
2023/03/27 06:23:06;;;;;;;22.27;15.10;;;11.60;99.90;;;;;;5091492;28;20688;-81
2023/03/27 06:25:34;;;;;;;20.63;14.98;;;11.70;99.90;;;;;;5090729;28;20172;-79
2023/03/27 06:28:03;;;;;;;8.95;7.25;;;11.60;99.90;;;;;;5085139;28;20317;-78
2023/03/27 06:30:29;;;;;;;8.80;7.20;;;11.60;99.90;;;;;;5073328;28;20220;-81
2023/03/27 06:32:59;;;;;;;7.82;7.03;;;11.70;99.90;;;;;;5069497;28;20231;-79
2023/03/27 06:35:27;;;;;;;9.75;8.15;;;11.60;99.90;;;;;;5085918;28;20183;-81
2023/03/27 06:37:54;;;;;;;9.18;7.65;;;11.50;99.90;;;;;;5089865;28;20212;-79
2023/03/27 06:40:23;;;;;;;9.25;8.00;;;11.50;99.90;;;;;;5087705;28;20259;-79
2023/03/27 06:42:49;;;;;;;9.73;7.35;;;11.40;99.90;;;;;;5090969;28;20669;-79
2023/03/27 06:45:16;;;;;;;9.15;7.95;;;11.40;99.90;;;;;;5090039;28;20180;-81
2023/03/27 06:47:49;;;;;;;22.20;15.25;;;11.30;99.90;;;;;;5089980;28;20208;-81
2023/03/27 06:50:16;;;;;;;14.07;11.90;;;11.40;99.90;;;;;;5088675;28;20204;-79
2023/03/27 06:52:41;;;;;;;10.85;8.85;;;11.50;99.90;;;;;;5087561;28;20204;-81
2023/03/27 06:55:08;;;;;;;9.87;8.07;;;11.60;99.90;;;;;;5087812;28;20653;-79
2023/03/27 06:57:34;;;;;;;13.65;9.02;;;11.60;99.90;;;;;;5089994;28;20242;-79
2023/03/27 07:00:01;;;;;;;10.17;9.00;;;11.60;99.90;;;;;;5091107;28;20677;-79
2023/03/27 07:02:27;;;;;;;10.88;9.73;;;11.50;99.90;;;;;;5091005;28;20457;-79
2023/03/27 07:04:52;;;;;;;12.20;10.17;;;11.50;99.90;;;;;;5089212;28;20231;-79
2023/03/27 07:07:18;;;;;;;11.60;10.07;;;11.50;99.90;;;;;;5091241;28;20200;-81
2023/03/27 07:09:44;;;;;;;11.03;9.83;;;11.40;99.90;;;;;;5090898;28;20180;-79
2023/03/27 07:12:10;;;;;;;14.33;11.20;;;11.30;99.90;;;;;;5088317;28;20456;-82
2023/03/27 07:14:36;;;;;;;12.07;10.80;;;11.30;99.90;;;;;;5077892;28;20227;-79
2023/03/27 07:17:01;;;;;;;17.73;11.40;;;11.40;99.90;;;;;;5081674;28;20196;-81
2023/03/27 07:19:27;;;;;;;12.23;10.20;;;11.60;99.90;;;;;;5072099;28;20596;-81
2023/03/27 07:21:53;;;;;;;11.10;9.00;;;11.70;99.90;;;;;;5071771;28;20249;-81
2023/03/27 07:24:18;;;;;;;11.60;10.40;;;11.80;99.90;;;;;;5091819;28;20180;-80
2023/03/27 07:26:44;;;;;;;11.90;10.10;;;11.80;99.90;;;;;;5086497;28;20637;-81
2023/03/27 07:29:10;;;;;;;11.60;10.00;;;11.80;99.90;;;;;;5071502;28;20284;-79
2023/03/27 07:31:36;;;;;;;12.80;9.83;;;11.80;99.90;;;;;;5092329;28;20646;-79
2023/03/27 07:34:02;;;;;;;17.80;11.40;;;11.80;99.90;;;;;;5084416;28;20412;-81
2023/03/27 07:36:28;;;;;;;14.27;10.30;;;11.80;99.90;;;;;;5080540;28;20177;-80
2023/03/27 07:38:53;;;;;;;13.30;11.60;;;11.70;99.90;;;;;;5093180;28;20472;-80
2023/03/27 07:41:19;;;;;;;18.37;12.80;;;11.70;99.90;;;;;;5091716;28;20673;-79
2023/03/27 07:43:45;;;;;;;16.83;12.13;;;11.70;99.90;;;;;;5082105;28;20204;-81
2023/03/27 07:46:11;;;;;;;15.63;11.60;;;11.70;99.90;;;;;;5082095;28;20436;-79
2023/03/27 07:48:37;;;;;;;16.13;10.70;;;11.70;99.90;;;;;;5085242;28;20697;-80
2023/03/27 07:51:04;;;;;;;15.77;11.27;;;11.60;99.90;;;;;;5087042;28;20914;-81
2023/03/27 07:53:30;;;;;;;15.55;11.02;;;11.60;99.90;;;;;;5087379;28;20445;-82
2023/03/27 07:55:57;;;;;;;12.90;11.47;;;11.50;99.90;;;;;;5085047;28;20185;-81
2023/03/27 07:58:24;;;;;;;14.70;11.60;;;11.50;99.90;;;;;;5086528;28;20717;-79
2023/03/27 08:00:51;;;;;;;17.00;11.20;;;11.60;99.90;;;;;;5077034;28;20176;-80
2023/03/27 08:03:19;;;;;;;15.43;12.55;;;11.60;99.90;;;;;;5081405;28;20945;-80
2023/03/27 08:05:55;;;;;;;16.15;12.35;;;11.60;99.90;;;;;;5089396;28;20181;-81
2023/03/27 08:08:20;;;;;;;16.20;12.80;;;11.60;99.90;;;;;;5082297;28;20810;-79
2023/03/27 08:10:47;;;;;;;16.10;13.13;;;11.60;99.90;;;;;;5082500;28;20267;-80
2023/03/27 08:13:12;;;;;;;16.70;12.50;;;11.70;99.90;;;;;;5091993;28;20692;-81
2023/03/27 08:15:38;;;;;;;16.70;13.43;;;11.80;99.90;;;;;;5088147;28;20172;-81
2023/03/27 08:18:05;;;;;;;19.50;14.90;;;11.80;99.90;;;;;;5090275;28;20239;-79
2023/03/27 08:20:31;;;;;;;22.45;16.77;;;11.80;99.90;;;;;;5090419;28;20554;-81
2023/03/27 08:22:57;;;;;;;21.37;16.17;;;11.80;99.90;;;;;;5090269;28;20208;-79
2023/03/27 08:25:23;;;;;;;38.53;26.00;;;11.90;99.90;;;;;;5090615;28;20703;-79
2023/03/27 08:27:49;;;;;;;19.13;15.03;;;11.80;99.90;;;;;;5084847;28;20437;-79
2023/03/27 08:30:15;;;;;;;13.52;11.98;;;11.90;99.90;;;;;;5089856;28;20436;-80
2023/03/27 08:32:42;;;;;;;12.20;10.93;;;11.90;99.90;;;;;;5090352;28;20200;-81
2023/03/27 08:35:08;;;;;;;15.40;13.55;;;11.90;99.90;;;;;;5080296;28;20713;-79
2023/03/27 08:37:34;;;;;;;11.85;10.65;;;11.90;99.90;;;;;;5088885;28;20200;-79
2023/03/27 08:40:00;;;;;;;11.37;9.43;;;12.00;99.90;;;;;;5086189;28;20184;-80
2023/03/27 08:42:39;;;;;;;16.17;12.00;;;12.00;99.90;;;;;;5082131;28;20197;-81
2023/03/27 08:45:23;;;;;;;10.57;9.00;;;12.10;99.90;;;;;;5089160;28;20206;-78
2023/03/27 08:48:01;;;;;;;5.43;4.90;;;12.30;99.90;;;;;;5085968;28;20224;-80
2023/03/27 08:50:41;;;;;;;6.43;5.93;;;12.30;99.90;;;;;;5090828;28;20239;-78
2023/03/27 08:53:18;;;;;;;6.45;5.60;;;12.40;99.90;;;;;;5089655;28;20200;-81
2023/03/27 08:55:45;;;;;;;5.22;4.72;;;12.40;99.90;;;;;;5081984;28;20537;-81
2023/03/27 08:58:20;;;;;;;4.93;4.53;;;12.40;99.90;;;;;;5086716;28;20242;-80
2023/03/27 09:01:10;;;;;;;4.73;4.33;;;12.40;99.90;;;;;;5091427;28;20214;-80
2023/03/27 09:03:46;;;;;;;3.60;3.10;;;12.40;99.90;;;;;;5090859;28;20440;-81
2023/03/27 09:06:25;;;;;;;7.95;7.15;;;12.40;99.90;;;;;;5089379;28;20653;-81
2023/03/27 09:09:10;;;;;;;3.00;2.80;;;12.30;99.90;;;;;;5089723;28;20583;-81
2023/03/27 09:11:57;;;;;;;3.40;3.10;;;12.20;99.90;;;;;;5090268;28;20401;-80
2023/03/27 09:14:55;;;;;;;4.50;3.30;;;12.10;99.90;;;;;;5089374;28;20246;-79
2023/03/27 09:17:26;;;;;;;3.75;3.45;;;12.10;99.90;;;;;;5078491;28;20824;-81
2023/03/27 09:20:07;;;;;;;4.07;3.70;;;12.10;99.90;;;;;;5088131;28;20176;-81
2023/03/27 09:22:43;;;;;;;4.18;3.88;;;12.10;99.90;;;;;;5086990;28;20523;-82
2023/03/27 09:25:39;;;;;;;5.32;4.82;;;12.10;99.90;;;;;;5089892;28;20172;-79
2023/03/27 09:28:20;;;;;;;4.40;4.00;;;12.20;99.90;;;;;;5084845;28;20296;-81
2023/03/27 09:30:46;;;;;;;7.70;4.00;;;12.20;99.90;;;;;;5087831;28;20200;-80
2023/03/27 09:33:11;;;;;;;3.70;3.40;;;12.20;99.90;;;;;;5091236;28;20232;-80
2023/03/27 09:35:38;;;;;;;4.83;4.33;;;12.10;99.90;;;;;;5090101;28;20226;-82
2023/03/27 09:38:32;;;;;;;6.57;4.95;;;12.10;99.90;;;;;;5087241;28;20205;-81
2023/03/27 09:41:06;;;;;;;4.82;4.40;;;12.10;99.90;;;;;;5068889;28;20191;-80
2023/03/27 09:44:13;;;;;;;7.10;4.60;;;12.10;99.90;;;;;;5086421;28;20200;-80
2023/03/27 09:46:45;;;;;;;8.85;5.45;;;12.10;99.90;;;;;;5085261;28;20283;-80
2023/03/27 09:49:12;;;;;;;6.10;5.35;;;12.10;99.90;;;;;;5088583;28;20267;-81
2023/03/27 09:51:44;;;;;;;6.45;5.65;;;12.20;99.90;;;;;;5089924;28;20172;-80
2023/03/27 09:54:13;;;;;;;12.43;8.32;;;12.20;99.90;;;;;;5088159;28;20175;-80
2023/03/27 09:56:46;;;;;;;7.93;7.13;;;12.20;99.90;;;;;;5090774;28;20758;-80
2023/03/27 09:59:26;;;;;;;16.13;12.80;;;12.20;99.90;;;;;;5092036;28;20208;-81
2023/03/27 10:01:56;;;;;;;12.32;10.60;;;12.20;99.90;;;;;;5082565;28;20234;-81
2023/03/27 10:04:23;;;;;;;9.05;7.80;;;12.20;99.90;;;;;;5096224;28;20180;-79
2023/03/27 10:07:01;;;;;;;9.88;7.03;;;12.20;99.90;;;;;;5089490;28;21658;-80
2023/03/27 10:09:28;;;;;;;12.60;7.88;;;12.30;99.90;;;;;;5088387;28;20184;-81
2023/03/27 10:12:06;;;;;;;9.55;7.60;;;12.30;99.90;;;;;;5089491;28;20208;-81
2023/03/27 10:14:34;;;;;;;8.13;7.32;;;12.40;99.90;;;;;;5089707;28;20254;-81
2023/03/27 10:17:01;;;;;;;9.67;8.70;;;12.40;99.90;;;;;;5088275;28;20204;-81
2023/03/27 10:19:38;;;;;;;8.50;7.70;;;12.50;99.90;;;;;;5090133;28;20530;-81
2023/03/27 10:22:16;;;;;;;12.75;8.77;;;12.50;99.90;;;;;;5083928;28;20884;-81
2023/03/27 10:24:46;;;;;;;8.38;7.57;;;12.50;99.90;;;;;;5087451;28;20176;-79
2023/03/27 10:27:23;;;;;;;7.78;6.70;;;12.50;99.90;;;;;;5073233;28;20208;-82
2023/03/27 10:29:49;;;;;;;7.20;6.00;;;12.40;99.90;;;;;;5087470;28;20657;-78
2023/03/27 10:32:16;;;;;;;4.70;4.17;;;12.30;99.90;;;;;;5083283;28;20209;-80
2023/03/27 10:34:56;;;;;;;6.00;4.83;;;12.20;99.90;;;;;;5080257;28;20190;-79
2023/03/27 10:37:33;;;;;;;5.80;4.55;;;12.10;99.90;;;;;;5085870;28;20456;-81
2023/03/27 10:40:08;;;;;;;4.70;4.30;;;12.00;99.90;;;;;;5093859;28;20200;-82
2023/03/27 10:42:36;;;;;;;5.30;4.80;;;11.80;99.90;;;;;;5089010;28;20191;-82
2023/03/27 10:45:03;;;;;;;6.53;4.20;;;11.60;99.90;;;;;;5093847;28;20201;-80
2023/03/27 10:47:31;;;;;;;5.90;5.00;;;11.50;99.90;;;;;;5091321;28;20192;-80
2023/03/27 10:50:12;;;;;;;5.15;4.40;;;11.40;99.90;;;;;;5085551;28;20176;-81
2023/03/27 10:52:57;;;;;;;5.28;4.78;;;11.40;99.90;;;;;;5088968;28;20196;-81
2023/03/27 10:55:43;;;;;;;5.55;5.05;;;11.40;99.90;;;;;;5085781;28;20224;-82
2023/03/27 10:58:37;;;;;;;5.40;4.90;;;11.50;99.90;;;;;;5085820;28;20204;-81
2023/03/27 11:01:25;;;;;;;5.38;4.53;;;11.50;99.90;;;;;;5088984;28;20188;-80
2023/03/27 11:04:02;;;;;;;5.05;4.55;;;11.60;99.90;;;;;;5083668;28;20520;-81
2023/03/27 11:06:33;;;;;;;7.47;5.85;;;11.60;99.90;;;;;;5084203;28;20568;-82
2023/03/27 11:09:30;;;;;;;6.13;5.53;;;11.50;99.90;;;;;;5088994;28;20590;-82
2023/03/27 11:12:06;;;;;;;5.72;5.22;;;11.50;99.90;;;;;;5083299;28;20783;-80
2023/03/27 11:15:03;;;;;;;6.05;5.50;;;11.40;99.90;;;;;;5078761;28;20526;-80
2023/03/27 11:17:45;;;;;;;6.45;5.63;;;11.40;99.90;;;;;;5086111;28;20204;-82
2023/03/27 11:20:26;;;;;;;7.13;6.30;;;11.40;99.90;;;;;;5091615;28;20188;-80
2023/03/27 11:23:31;;;;;;;6.40;5.80;;;11.30;99.90;;;;;;5089828;28;20241;-80
2023/03/27 11:25:59;;;;;;;7.00;6.30;;;11.40;99.90;;;;;;5086376;28;20197;-82
2023/03/27 11:28:45;;;;;;;7.40;6.65;;;11.40;99.90;;;;;;5087904;28;20193;-82
2023/03/27 11:31:44;;;;;;;7.03;6.25;;;11.40;99.90;;;;;;5090333;28;20181;-82
2023/03/27 11:34:16;;;;;;;6.55;5.95;;;11.30;99.90;;;;;;5089590;28;20180;-82
2023/03/27 11:36:58;;;;;;;7.18;6.47;;;11.40;99.90;;;;;;5093248;28;20646;-80
2023/03/27 11:39:41;;;;;;;7.45;6.70;;;11.40;99.90;;;;;;5090778;28;20227;-80
2023/03/27 11:42:17;;;;;;;7.32;6.63;;;11.40;99.90;;;;;;5091607;28;20194;-81
2023/03/27 11:44:43;;;;;;;6.40;5.70;;;11.40;99.90;;;;;;5089326;28;20184;-82
2023/03/27 11:47:37;;;;;;;6.60;6.00;;;11.30;99.90;;;;;;5094449;28;20291;-81
2023/03/27 11:50:42;;;;;;;5.97;5.40;;;11.30;99.90;;;;;;5091582;28;20653;-81
2023/03/27 11:53:20;;;;;;;6.75;5.72;;;11.20;99.90;;;;;;5098055;28;20206;-80
2023/03/27 11:56:21;;;;;;;4.95;4.30;;;11.10;99.90;;;;;;5090029;28;20619;-82
2023/03/27 11:59:16;;;;;;;4.50;4.10;;;11.00;99.90;;;;;;5084223;28;20235;-80
2023/03/27 12:02:03;;;;;;;5.53;4.90;;;11.00;99.90;;;;;;5081995;28;20195;-82
2023/03/27 12:04:42;;;;;;;5.30;4.80;;;11.00;99.90;;;;;;5089948;28;20265;-80
2023/03/27 12:07:37;;;;;;;3.20;2.90;;;11.00;99.90;;;;;;5087570;28;20244;-81
2023/03/27 12:10:12;;;;;;;4.00;3.35;;;11.00;99.90;;;;;;5087600;28;20180;-80
2023/03/27 12:13:01;;;;;;;2.75;2.45;;;10.90;99.90;;;;;;5089525;28;20254;-80
2023/03/27 12:15:51;;;;;;;2.42;2.22;;;10.80;99.90;;;;;;5068162;28;20291;-80
2023/03/27 12:18:45;;;;;;;3.90;1.90;;;10.80;99.90;;;;;;5091910;28;20258;-80
2023/03/27 12:21:23;;;;;;;1.95;1.83;;;10.70;99.90;;;;;;5104424;28;20185;-80
2023/03/27 12:24:31;;;;;;;2.35;1.85;;;10.70;99.90;;;;;;5086757;28;20744;-80
2023/03/27 12:27:22;;;;;;;1.50;1.40;;;10.70;99.90;;;;;;5082640;28;20275;-79
2023/03/27 12:30:17;;;;;;;1.90;1.80;;;10.60;99.90;;;;;;5087892;28;20658;-79
2023/03/27 12:33:32;;;;;;;6.43;5.90;;;10.60;99.90;;;;;;5092671;28;20196;-79
2023/03/27 12:36:02;;;;;;;2.53;2.00;;;10.60;99.90;;;;;;5067511;28;20202;-78
2023/03/27 12:38:40;;;;;;;3.97;3.58;;;10.60;99.90;;;;;;5091861;28;20247;-82
2023/03/27 12:41:12;;;;;;;5.75;4.72;;;10.50;99.90;;;;;;5092728;28;20211;-81
2023/03/27 12:43:43;;;;;;;7.68;4.90;;;10.50;99.90;;;;;;5095835;28;20195;-80
2023/03/27 12:46:32;;;;;;;6.97;5.88;;;10.50;99.90;;;;;;5096246;28;20343;-82
2023/03/27 12:49:06;;;;;;;17.65;15.85;;;10.50;99.90;;;;;;5086994;28;20260;-82
2023/03/27 12:52:03;;;;;;;9.25;8.20;;;10.50;99.90;;;;;;5088395;28;20168;-80
2023/03/27 12:54:33;;;;;;;7.13;6.43;;;10.60;99.90;;;;;;5088509;28;20180;-83
2023/03/27 12:57:20;;;;;;;8.35;6.97;;;10.50;99.90;;;;;;5091841;28;20197;-82
2023/03/27 12:59:49;;;;;;;7.55;6.75;;;10.50;99.90;;;;;;5087909;28;20311;-80
2023/03/27 13:02:45;;;;;;;7.90;7.10;;;10.50;99.90;;;;;;5093429;28;20296;-80
2023/03/27 13:05:30;;;;;;;27.52;22.48;;;10.40;99.90;;;;;;5091240;28;20173;-83
2023/03/27 13:07:55;;;;;;;14.13;12.65;;;10.30;99.90;;;;;;5091060;28;20207;-79
2023/03/27 13:10:31;;;;;;;8.43;6.60;;;10.20;99.90;;;;;;5090273;28;20192;-82
2023/03/27 13:12:59;;;;;;;6.38;5.63;;;10.30;99.90;;;;;;5086496;28;20228;-81